Time;durP1;ratioP1;P1;durP2;ratioP2;P2;SDS_P1;SDS_P2;PMS_P1;PMS_P2;Temp;Humidity;BMP_temperature;BMP_pressure;BME280_temperature;BME280_humidity;BME280_pressure;Samples;Min_cycle;Max_cycle;Signal;HPM_P1;HPM_P2
2023/07/17 01:07:03;;;;;;;5.07;4.57;;;21.20;99.90;;;;;;5824879;23;20183;-84
2023/07/17 01:27:20;;;;;;;5.10;4.60;;;21.20;99.90;;;;;;5696456;24;20615;-84
2023/07/17 02:02:59;;;;;;;5.70;5.20;;;20.50;99.90;;;;;;5644057;24;20489;-85
2023/07/17 02:47:59;;;;;;;5.80;4.93;;;20.50;99.90;;;;;;5748108;24;20517;-84
2023/07/17 03:19:03;;;;;;;5.67;5.27;;;21.30;99.90;;;;;;5982754;23;20182;-83
2023/07/17 03:44:05;;;;;;;7.40;5.43;;;22.30;97.80;;;;;;5825130;24;20528;-87
2023/07/17 04:04:07;;;;;;;8.13;5.70;;;22.50;96.00;;;;;;5503489;25;20466;-84
2023/07/17 04:25:03;;;;;;;6.03;5.45;;;22.50;96.30;;;;;;5734485;24;20229;-88
2023/07/17 04:50:00;;;;;;;6.32;5.72;;;23.40;92.80;;;;;;5536182;25;20325;-83
2023/07/17 05:35:51;;;;;;;6.57;5.60;;;24.50;89.50;;;;;;5720462;24;20200;-87
2023/07/17 06:11:26;;;;;;;7.75;6.03;;;25.90;84.00;;;;;;5847510;23;20162;-83
2023/07/17 06:36:54;;;;;;;6.75;4.88;;;27.40;78.50;;;;;;5914407;23;20354;-84
2023/07/17 07:12:22;;;;;;;5.70;4.68;;;27.00;75.50;;;;;;5967731;23;20402;-84
2023/07/17 07:42:20;;;;;;;4.85;4.35;;;27.40;69.50;;;;;;5668145;24;20632;-84
2023/07/17 08:08:07;;;;;;;5.25;4.65;;;26.90;72.50;;;;;;5722114;24;20936;-83
2023/07/17 08:58:33;;;;;;;6.25;4.57;;;27.90;67.10;;;;;;5501675;25;21119;-85
2023/07/17 09:28:46;;;;;;;5.43;4.90;;;28.70;63.60;;;;;;5548061;24;20518;-85
2023/07/17 10:19:57;;;;;;;5.32;4.40;;;28.60;62.60;;;;;;5627131;24;20203;-85
2023/07/17 10:55:12;;;;;;;4.60;4.20;;;30.90;61.10;;;;;;5724686;24;20677;-85
2023/07/17 11:15:46;;;;;;;4.25;3.95;;;31.10;60.50;;;;;;5783892;24;20195;-86
2023/07/17 12:31:49;;;;;;;4.70;3.35;;;31.40;57.00;;;;;;5991936;23;20231;-86
2023/07/17 12:57:11;;;;;;;4.80;3.65;;;30.00;56.00;;;;;;5858093;24;20768;-83
2023/07/17 13:27:16;;;;;;;4.75;4.20;;;30.10;58.70;;;;;;5824114;24;20335;-84
2023/07/17 13:47:59;;;;;;;4.07;3.70;;;30.70;57.70;;;;;;5707346;24;20588;-86
2023/07/17 14:27:58;;;;;;;4.47;4.07;;;31.10;61.60;;;;;;5840160;23;20517;-88
2023/07/17 15:24:27;;;;;;;6.85;4.40;;;30.60;62.40;;;;;;5722232;24;21306;-84
2023/07/17 15:49:44;;;;;;;4.80;4.30;;;33.60;61.70;;;;;;5862351;24;20231;-84
2023/07/17 16:20:01;;;;;;;6.05;5.30;;;30.40;62.60;;;;;;5972996;23;20187;-83
2023/07/17 16:50:35;;;;;;;6.05;5.10;;;28.00;82.50;;;;;;5913433;23;20194;-83
2023/07/17 17:21:01;;;;;;;7.95;5.38;;;26.50;90.70;;;;;;5668413;24;20312;-83
2023/07/17 17:51:31;;;;;;;7.40;4.65;;;23.00;95.30;;;;;;5666251;24;20180;-83
2023/07/17 18:16:43;;;;;;;11.07;8.67;;;19.60;99.90;;;;;;5686054;24;20345;-82
2023/07/17 18:42:00;;;;;;;11.60;10.40;;;19.70;99.90;;;;;;5608019;24;20222;-83
2023/07/17 19:22:09;;;;;;;10.33;9.33;;;20.10;99.90;;;;;;5822206;24;20248;-82
2023/07/17 19:43:05;;;;;;;10.63;9.03;;;20.40;99.90;;;;;;5886236;24;20211;-83
2023/07/17 20:18:14;;;;;;;7.40;6.67;;;21.10;99.90;;;;;;5753171;24;20219;-87
2023/07/17 20:43:45;;;;;;;7.53;6.93;;;21.40;99.90;;;;;;5715748;24;20225;-85
2023/07/17 21:14:14;;;;;;;8.63;7.80;;;20.90;99.90;;;;;;5735954;24;20246;-84
2023/07/17 21:39:17;;;;;;;10.50;9.50;;;20.10;99.90;;;;;;5720706;24;20322;-84
2023/07/17 21:54:58;;;;;;;13.63;10.37;;;19.80;99.90;;;;;;5643732;25;20213;-84
2023/07/17 22:20:08;;;;;;;11.43;10.37;;;19.80;99.90;;;;;;5570099;25;20229;-87
2023/07/17 23:36:10;;;;;;;17.20;14.13;;;18.50;99.90;;;;;;5667304;24;20216;-83
